Map

Track Data

SID SEASON NUMBER BASIN SUBBASIN NAME ISO_TIME NATURE LAT LON WMO_WIND WMO_PRES WMO_AGENCY TRACK_TYPE DIST2LAND LANDFALL IFLAG USA_AGENCY USA_ATCF_ID USA_LAT USA_LON USA_RECORD USA_STATUS USA_WIND USA_PRES USA_SSHS USA_R34_NE USA_R34_SE USA_R34_SW USA_R34_NW USA_R50_NE USA_R50_SE USA_R50_SW USA_R50_NW USA_R64_NE USA_R64_SE USA_R64_SW USA_R64_NW USA_POCI USA_ROCI USA_RMW USA_EYE TOKYO_LAT TOKYO_LON TOKYO_GRADE TOKYO_WIND TOKYO_PRES TOKYO_R50_DIR TOKYO_R50_LONG TOKYO_R50_SHORT TOKYO_R30_DIR TOKYO_R30_LONG TOKYO_R30_SHORT TOKYO_LAND CMA_LAT CMA_LON CMA_CAT CMA_WIND CMA_PRES HKO_LAT HKO_LON HKO_CAT HKO_WIND HKO_PRES NEWDELHI_LAT NEWDELHI_LON NEWDELHI_GRADE NEWDELHI_WIND NEWDELHI_PRES NEWDELHI_CI NEWDELHI_DP NEWDELHI_POCI REUNION_LAT REUNION_LON REUNION_TYPE REUNION_WIND REUNION_PRES REUNION_TNUM REUNION_CI REUNION_RMW REUNION_R34_NE REUNION_R34_SE REUNION_R34_SW REUNION_R34_NW REUNION_R50_NE REUNION_R50_SE REUNION_R50_SW REUNION_R50_NW REUNION_R64_NE REUNION_R64_SE REUNION_R64_SW REUNION_R64_NW BOM_LAT BOM_LON BOM_TYPE BOM_WIND BOM_PRES BOM_TNUM BOM_CI BOM_RMW BOM_R34_NE BOM_R34_SE BOM_R34_SW BOM_R34_NW BOM_R50_NE BOM_R50_SE BOM_R50_SW BOM_R50_NW BOM_R64_NE BOM_R64_SE BOM_R64_SW BOM_R64_NW BOM_ROCI BOM_POCI BOM_EYE BOM_POS_METHOD BOM_PRES_METHOD NADI_LAT NADI_LON NADI_CAT NADI_WIND NADI_PRES WELLINGTON_LAT WELLINGTON_LON WELLINGTON_WIND WELLINGTON_PRES DS824_LAT DS824_LON DS824_STAGE DS824_WIND DS824_PRES TD9636_LAT TD9636_LON TD9636_STAGE TD9636_WIND TD9636_PRES TD9635_LAT TD9635_LON TD9635_WIND TD9635_PRES TD9635_ROCI NEUMANN_LAT NEUMANN_LON NEUMANN_CLASS NEUMANN_WIND NEUMANN_PRES MLC_LAT MLC_LON MLC_CLASS MLC_WIND MLC_PRES USA_GUST BOM_GUST BOM_GUST_PER REUNION_GUST REUNION_GUST_PER USA_SEAHGT USA_SEARAD_NE USA_SEARAD_SE USA_SEARAD_SW USA_SEARAD_NW STORM_SPEED STORM_DIR
1976351S13141 1977 144 SP EA TED 1976-12-15 23:00:00 NR -12.6000 140.500 25 1005 bom main 119 119 ______O_______ -1 -12.6000 140.500 20 25 1005 1.50000 45 45 13 257
1976351S13141 1977 144 SP EA TED 1976-12-16 00:00:00 TS -12.6476 140.281 main 141 141 O_____P__OO_O_ jtwc_sh SH041977 -12.7000 140.000 25 -1 -12.6167 140.433 20 25 1004 -12.6000 140.400 TC 20 1005 -12.7000 140.000 1 26 -12.6000 140.700 TC 20 1005 6 256
1976351S13141 1977 144 SP EA TED 1976-12-16 03:00:00 TS -12.7012 140.069 main 163 163 P_____P__PP_P_ SH041977 -12.7500 139.790 25 -1 -12.6667 140.233 20 25 1002 -12.6500 140.200 TC 25 1003 -12.7579 139.819 1 27 -12.6500 140.500 TC 22 1003 4 255
1976351S13141 1977 144 SP EA TED 1976-12-16 05:00:00 TS -12.7361 139.935 25 1001 bom main 184 184 P_____O__PP_P_ SH041977 -12.7834 139.660 25 -1 -12.7000 140.100 20 25 1001 2.00000 -12.6833 140.067 TC 28 1001 -12.7949 139.699 1 27 -12.6833 140.367 TC 24 1001 45 45 4 255
1976351S13141 1977 144 SP EA TED 1976-12-16 06:00:00 TS -12.7549 139.862 main 185 185 O_____P__OP_O_ jtwc_sh SH041977 -12.8000 139.600 25 -1 -12.7167 140.033 20 25 1000 -12.7000 140.000 TC 30 1001 -12.8126 139.640 1 28 -12.7000 140.300 TC 25 1001 4 254
1976351S13141 1977 144 SP EA TED 1976-12-16 09:00:00 TS -12.8046 139.681 main 207 207 P_____P__PP_P_ SH041977 -12.8500 139.443 27 -1 -12.7667 139.833 20 28 998 -12.7500 139.800 TC 32 999 -12.8610 139.466 1 29 -12.7500 140.100 TC 30 999 4 254
1976351S13141 1977 144 SP EA TED 1976-12-16 11:00:00 TS -12.8369 139.564 30 997 bom main 218 218 P_____O__PP_P_ SH041977 -12.8833 139.347 29 -1 -12.8000 139.700 20 30 997 2.50000 -12.7833 139.667 TC 34 997 -12.8882 139.354 1 29 -12.7833 139.967 TC 33 997 45 45 4 254
1976351S13141 1977 144 SP EA TED 1976-12-16 12:00:00 TS -12.8528 139.505 main 227 227 O_____P__OO_O_ jtwc_sh SH041977 -12.9000 139.300 30 -1 -12.8167 139.631 20 30 996 -12.8000 139.600 TC 35 997 -12.9000 139.300 1 30 -12.8000 139.900 TC 35 997 4 255
1976351S13141 1977 144 SP EA TED 1976-12-16 15:00:00 TS -12.9016 139.324 main 249 248 P_____P__PP_P_ SH041977 -12.9575 139.150 32 -1 -12.8667 139.425 20 33 995 -12.8500 139.385 TC 37 995 -12.9281 139.143 1 32 -12.8500 139.692 TC 37 995 4 255
1976351S13141 1977 144 SP EA TED 1976-12-16 17:00:00 TS -12.9313 139.210 35 994 bom main 248 248 P_____O__PP_P_ SH041977 -12.9890 139.050 34 0 -12.9000 139.300 30 35 994 3.00000 -12.8833 139.255 TC 39 994 -12.9430 139.042 1 34 -12.8833 139.561 TC 39 994 49 49 3 255
1976351S13141 1977 144 SP EA TED 1976-12-16 18:00:00 TS -12.9449 139.156 main 248 230 O_____P__OP_O_ jtwc_sh SH041977 -13.0000 139.000 35 0 -12.9193 139.242 30 36 993 -12.9000 139.200 TC 40 994 -12.9499 138.992 1 35 -12.9000 139.500 TC 40 994 3 257
1976351S13141 1977 144 SP EA TED 1976-12-16 21:00:00 TS -12.9769 139.009 main 230 220 P_____P__PP_P_ SH041977 -13.0000 138.850 37 0 -12.9746 139.087 30 41 991 -12.9575 139.085 TC 42 992 -12.9718 138.846 1 37 -12.9575 139.335 TC 42 992 3 258
1976351S13141 1977 144 SP EA TED 1976-12-16 23:00:00 TS -12.9936 138.920 45 990 bom main 220 220 P_____O__PP_P_ SH041977 -12.9969 138.750 39 0 -13.0000 139.000 30 45 990 3.00000 -12.9890 139.028 TC 44 990 -12.9895 138.749 1 39 -12.9890 139.242 TC 44 990 64 64 3 260
1976351S13141 1977 144 SP EA TED 1976-12-17 00:00:00 TS -13.0005 138.877 main 220 210 O_____P__OO_O_ jtwc_sh SH041977 -13.0000 138.700 40 0 -13.0031 138.961 30 46 988 -13.0000 139.000 TC 45 990 -13.0000 138.700 2 40 -13.0000 139.200 TC 45 990 3 262
1976351S13141 1977 144 SP EA TED 1976-12-17 03:00:00 TS -13.0182 138.749 main 200 200 P_____P__PP_P_ SH041977 -13.0425 138.550 42 0 -12.9975 138.861 30 51 984 -13.0000 138.900 TC 50 986 -13.0266 138.542 2 44 -13.0000 139.092 TC 52 986 2 261
1976351S13141 1977 144 SP EA TED 1976-12-17 05:00:00 TS -13.0340 138.667 55 982 bom main 200 190 P_____O__PP_P_ SH041977 -13.0807 138.450 44 0 -13.0000 138.800 30 55 982 4.00000 -12.9969 138.833 TC 53 983 -13.0489 138.437 2 47 -12.9969 139.031 TC 57 983 75 75 2 256
1976351S13141 1977 144 SP EA TED 1976-12-17 06:00:00 TS -13.0460 138.625 main 190 185 O_____P__OP_O_ jtwc_sh SH041977 -13.1000 138.400 45 0 -13.0136 138.767 30 56 980 -13.0000 138.800 TC 55 982 -13.0625 138.385 2 48 -13.0000 139.000 TC 60 982 3 249
1976351S13141 1977 144 SP EA TED 1976-12-17 09:00:00 TS -13.0952 138.499 main 185 176 P_____P__PP_P_ SH041977 -13.1425 138.242 50 0 -13.0691 138.667 30 61 976 -13.0500 138.708 TC 60 978 -13.1172 138.236 2 52 -13.0500 138.900 TC 65 978 3 247
1976351S13141 1977 144 SP EA TED 1976-12-17 11:00:00 TS -13.1328 138.417 65 974 bom main 176 176 P_____O__PP_P_ SH041977 -13.1776 138.144 53 0 -13.1000 138.600 40 65 974 4.50000 -13.0864 138.639 TC 63 975 -13.1687 138.143 2 55 -13.0864 138.833 TC 68 975 89 89 3 245
1976351S13141 1977 144 SP EA TED 1976-12-17 12:00:00 TS -13.1505 138.378 main 175 165 O_____P__OO_O_ jtwc_sh SH041977 -13.2000 138.100 55 0 -13.1031 138.569 40 65 973 -13.1000 138.600 TC 65 974 -13.2000 138.100 2 57 -13.1000 138.800 TC 70 974 2 248
1976351S13141 1977 144 SP EA TED 1976-12-17 15:00:00 TS -13.1917 138.264 main 165 155 P_____P__PP_P_ SH041977 -13.2775 137.992 62 0 -13.0975 138.475 40 68 970 -13.0925 138.457 TC 70 971 -13.3050 137.961 2 62 -13.1000 138.707 TC 72 971 2 247
1976351S13141 1977 144 SP EA TED 1976-12-17 17:00:00 TS -13.2308 138.188 70 969 bom main 155 151 P_____O__PP_P_ SH041977 -13.3526 137.931 67 1 -13.1000 138.400 40 70 969 4.50000 -13.0912 138.353 TC 73 969 -13.3917 137.878 2 66 -13.0969 138.639 TC 74 969 99 99 3 241
1976351S13141 1977 144 SP EA TED 1976-12-17 18:00:00 TS -13.2556 138.150 main 141 131 O_____P__OP_O_ jtwc_sh SH041977 -13.4000 137.900 70 1 -13.0933 138.359 40 71 968 -13.1000 138.300 TC 75 969 -13.4400 137.840 2 68 -13.1000 138.600 TC 75 969 3 232
1976351S13141 1977 144 SP EA TED 1976-12-17 21:00:00 TS -13.3547 138.025 main 127 123 P_____P__PP_P_ SH041977 -13.5775 137.785 75 1 -13.1081 138.215 40 76 965 -13.1550 138.150 TC 77 966 -13.6050 137.749 2 74 -13.1050 138.465 TC 77 966 3 224
1976351S13141 1977 144 SP EA TED 1976-12-17 23:00:00 TS -13.4612 137.944 80 964 bom main 113 113 P_____O__PP_P_ SH041977 -13.7224 137.722 78 1 -13.2000 138.100 40 80 964 5.00000 -13.2386 138.050 TC 79 964 -13.7317 137.711 2 78 -13.1522 138.358 TC 79 964 110 110 4 214
1976351S13141 1977 144 SP EA TED 1976-12-18 00:00:00 TS -13.5312 137.906 main 113 97 O_____P__OO_O_ jtwc_sh SH041977 -13.8000 137.700 80 1 -13.2871 138.036 40 81 963 -13.3000 138.000 TC 80 964 -13.8000 137.700 4 80 -13.2000 138.300 TC 80 964 5 208
1976351S13141 1977 144 SP EA TED 1976-12-18 02:00:00 TS -13.6912 137.823 85 963 bom main 97 97 P_____O__PP_P_ SH041977 -13.9588 137.673 85 2 -13.5000 137.900 40 85 963 5.00000 -13.4521 137.868 TC 80 963 -13.9333 137.683 4 83 -13.3442 138.142 TC 81 963 119 119 6 205
1976351S13141 1977 144 SP EA TED 1976-12-18 03:00:00 TS -13.7787 137.785 main 97 82 P_____P__PP_P_ SH041977 -14.0425 137.670 87 2 -13.5946 137.817 40 86 960 -13.5475 137.805 TC 80 963 -14.0049 137.683 4 85 -13.4401 138.063 TC 82 963 6 197
1976351S13141 1977 144 SP EA TED 1976-12-18 05:00:00 TS -13.9714 137.736 90 955 bom main 82 78 P_____O__PP_P_ SH041977 -14.2140 137.683 92 2 -13.8000 137.700 40 90 955 5.50000 -13.7724 137.716 TC 80 962 -14.1582 137.696 4 88 -13.6698 137.935 TC 84 962 124 124 6 189
1976351S13141 1977 144 SP EA TED 1976-12-18 06:00:00 TS -14.0766 137.737 main 78 76 O_____P__OP_O_ jtwc_sh SH041977 -14.3000 137.700 95 2 -13.9200 137.710 40 93 951 -13.9000 137.700 TC 80 962 -14.2399 137.710 4 90 -13.8000 137.900 TC 85 962 7 172
1976351S13141 1977 144 SP EA TED 1976-12-18 08:00:00 TS -14.3017 137.781 100 945 bom main 86 86 P_____O__PP_P_ SH041977 -14.4612 137.740 96 3 -14.2000 137.800 40 100 945 6.00000 -14.1872 137.747 TC 81 961 -14.4132 137.754 4 94 -14.0871 137.908 TC 85 961 139 139 7 167
1976351S13141 1977 144 SP EA TED 1976-12-18 09:00:00 TS -14.4231 137.815 main 86 86 P_____P__PP_P_ SH041977 -14.5425 137.770 97 3 -14.3636 137.830 40 100 945 -14.3425 137.797 TC 82 961 -14.5049 137.783 4 95 -14.2425 137.940 TC 85 961 8 162
1976351S13141 1977 144 SP EA TED 1976-12-18 11:00:00 TS -14.6712 137.904 100 945 bom main 106 106 P_____O__PP_P_ SH041977 -14.7109 137.850 99 3 -14.7000 137.900 40 100 945 6.00000 -14.6536 137.928 TC 84 960 -14.6983 137.856 4 99 -14.5535 138.039 TC 85 960 139 139 8 160
1976351S13141 1977 144 SP EA TED 1976-12-18 12:00:00 TS -14.7900 137.959 main 121 121 O_____P__OO_O_ jtwc_sh SH041977 -14.8000 137.900 100 3 -14.8400 137.951 40 100 945 -14.8000 138.000 TC 85 960 -14.8000 137.900 4 101 -14.7000 138.100 TC 85 960 7 153
1976351S13141 1977 144 SP EA TED 1976-12-18 15:00:00 TS -15.1106 138.141 main 130 114 P_____P__PP_P_ SH041977 -15.0775 138.085 97 3 -15.1889 138.152 40 100 945 -15.1575 138.193 TC 87 957 -15.0969 138.045 4 95 -15.0650 138.285 TC 90 957 7 150
1976351S13141 1977 144 SP EA TED 1976-12-18 17:00:00 TS -15.3259 138.280 100 945 bom main 119 110 P_____O__PP_P_ SH041977 -15.2860 138.228 95 2 -15.4000 138.300 40 100 945 6.00000 -15.3829 138.331 TC 89 955 -15.3118 138.166 4 91 -15.2886 138.428 TC 93 955 139 139 8 148
1976351S13141 1977 144 SP EA TED 1976-12-18 18:00:00 TS -15.4385 138.349 main 110 96 O_____P__OP_O_ jtwc_sh SH041977 -15.4000 138.300 95 2 -15.5059 138.360 40 100 945 -15.5000 138.400 TC 90 955 -15.4250 138.233 4 90 -15.4000 138.500 TC 95 955 8 152
1976351S13141 1977 144 SP EA TED 1976-12-18 21:00:00 TS -15.7962 138.543 main 96 89 P_____P__PP_P_ SH041977 -15.7699 138.485 87 2 -15.8343 138.545 40 100 945 -15.8850 138.593 TC 92 952 -15.7906 138.454 4 84 -15.7275 138.693 TC 97 952 9 153
1976351S13141 1977 144 SP EA TED 1976-12-18 23:00:00 TS -16.0638 138.686 100 945 bom main 79 67 P_____O__PP_P_ SH041977 -16.0500 138.622 82 1 -16.1000 138.700 40 100 945 6.00000 -16.1583 138.728 TC 94 950 -16.0583 138.616 4 80 -15.9662 138.828 TC 99 950 139 139 9 152
1976351S13141 1977 144 SP EA TED 1976-12-19 00:00:00 TS -16.2098 138.767 main 70 44 O_____P__OO_O_ jtwc_sh SH041977 -16.2000 138.700 80 1 -16.2590 138.801 40 100 945 -16.3000 138.800 TC 95 950 -16.2000 138.700 4 79 -16.1000 138.900 TC 100 950 11 152
1976351S13141 1977 144 SP EA TED 1976-12-19 02:00:00 TS -16.5262 138.945 100 945 bom main 44 22 P_____O__PP_P_ SH041977 -16.5176 138.890 76 1 -16.6000 139.000 40 100 945 6.00000 3 -16.5921 138.953 TC 95 950 -16.5097 138.876 4 72 -16.4205 139.059 TC 100 950 139 139 11 152
1976351S13141 1977 144 SP EA TED 1976-12-19 03:00:00 TS -16.6917 139.034 main 22 0 P_____P__PP_P_ SH041977 -16.6851 138.992 75 1 -16.7721 139.075 40 98 946 -16.7425 139.035 TC 95 950 -16.6733 138.969 4 69 -16.5925 139.142 TC 100 950 11 153
1976351S13141 1977 144 SP EA TED 1976-12-19 05:00:00 TS -17.0254 139.214 95 950 bom main 0 0 P_____O__PP_P_ SH041977 -17.0281 139.200 71 1 -17.1000 139.200 40 95 950 5.50000 -17.0474 139.208 TC 95 950 -17.0122 139.160 4 63 -16.9369 139.314 TC 100 950 135 135 11 153
1976351S13141 1977 144 SP EA TED 1976-12-19 06:00:00 TS -17.1877 139.303 main 10 0 O_____P__OP_O_ jtwc_sh SH041977 -17.2000 139.300 70 1 -17.2412 139.261 40 93 950 -17.2000 139.300 TC 95 950 -17.1853 139.257 4 60 -17.1000 139.400 TC 100 950 11 153
1976351S13141 1977 144 SP EA TED 1976-12-19 08:00:00 TS -17.5005 139.473 90 950 bom main 0 0 P_____O__PP_P_ SH041977 -17.5442 139.480 66 1 -17.5000 139.400 40 90 950 -17.5054 139.487 TC 95 950 -17.5326 139.448 4 53 -17.3769 139.545 TC 100 950 124 124 11 152
1976351S13141 1977 144 SP EA TED 1976-12-19 09:00:00 TS -17.6545 139.560 main 0 0 P_____P__PP_P_ SH041977 -17.7150 139.565 65 1 -17.6279 139.481 40 90 950 -17.6574 139.585 TC 95 950 -17.7046 139.541 4 50 -17.5073 139.620 TC 100 950 11 151
1976351S13141 1977 144 SP EA TED 1976-12-19 11:00:00 TS -17.9584 139.742 90 950 bom main 0 0 P_____O__PP_P_ SH041977 -18.0447 139.725 61 0 -17.9000 139.700 40 90 950 3 -17.9557 139.792 TC 95 950 -18.0394 139.718 4 44 -17.7661 139.794 TC 100 950 124 124 11 150
1976351S13141 1977 144 SP EA TED 1976-12-19 12:00:00 TS -18.1107 139.843 main 0 0 O_____P__OO_O_ jtwc_sh SH041977 -18.2000 139.800 60 0 -18.0642 139.856 40 85 953 -18.1000 139.900 TC 95 950 -18.2000 139.800 2 41 -17.9000 139.900 TC 100 950 11 145
1976351S13141 1977 144 SP EA TED 1976-12-19 14:00:00 TS -18.4087 140.067 75 960 bom main 0 0 P_____O__PP_P_ SH041977 -18.4824 139.947 56 0 -18.4000 140.200 40 75 960 -18.3801 140.152 TC 86 956 -18.5039 139.949 2 -18.2033 140.206 TC 86 956 104 104 11 144
1976351S13141 1977 144 SP EA TED 1976-12-19 15:00:00 TS -18.5487 140.176 main 0 0 P_____P__PP_P_ SH041977 -18.6150 140.015 55 0 -18.5412 140.358 40 71 963 -18.5151 140.280 TC 82 960 -18.6480 140.017 2 -18.3578 140.372 TC 80 960 10 145
1976351S13141 1977 144 SP EA TED 1976-12-19 17:00:00 TS -18.8168 140.369 65 970 bom main 0 0 P_____O__PP_P_ SH041977 -18.8719 140.142 51 0 -18.8000 140.600 40 65 970 -18.7751 140.509 TC 74 966 -18.9229 140.141 2 -18.6590 140.679 TC 66 966 89 89 10 148
1976351S13141 1977 144 SP EA TED 1976-12-19 18:00:00 TS -18.9489 140.442 main 0 0 O_____P__OP_O_ jtwc_sh SH041977 -19.0000 140.200 50 0 -18.9387 140.657 40 60 973 -18.9000 140.600 TC 70 970 -19.0548 140.198 2 -18.8000 140.800 TC 60 970 9 157
1976351S13141 1977 144 SP EA TED 1976-12-19 20:00:00 TS -19.2112 140.545 50 980 bom main 0 0 P_____O__PP_P_ SH041977 -19.2617 140.307 46 0 -19.2000 140.700 30 50 980 -19.1628 140.717 TC 64 975 -19.3100 140.304 2 -19.0707 140.933 TC 54 975 69 69 8 156
1976351S13141 1977 144 SP EA TED 1976-12-19 21:00:00 TS -19.3265 140.621 main 0 0 P_____P__PP_P_ SH041977 -19.3950 140.357 45 0 -19.3137 140.737 30 48 981 -19.2874 140.753 TC 62 977 -19.4342 140.355 2 -19.1948 140.968 TC 52 977 7 152
1976351S13141 1977 144 SP EA TED 1976-12-19 23:00:00 TS -19.5387 140.726 45 985 bom main 0 0 P_____O__PP_P_ SH041977 -19.6645 140.453 41 0 -19.5000 140.800 30 45 985 -19.5088 140.791 TC 57 982 -19.6788 140.452 2 -19.4113 140.997 TC 47 982 64 64 7 149
1976351S13141 1977 144 SP EA TED 1976-12-20 00:00:00 TS -19.6062 140.798 main 0 0 O_____P__OO_O_ jtwc_sh SH041977 -19.8000 140.500 40 0 -19.5734 140.816 30 44 985 -19.6000 140.800 TC 55 985 -19.8000 140.500 6 -19.5000 141.000 TC 45 985 4 142
1976351S13141 1977 144 SP EA TED 1976-12-20 03:00:00 TS -19.7274 140.882 main 0 0 ______P__P__P_ SH041977 -1 -19.7222 140.815 30 41 986 -19.7800 140.815 TC 52 986 6 -19.6800 141.015 TC 42 986 3 160
1976351S13141 1977 144 SP EA TED 1976-12-20 05:00:00 TS -19.8070 140.870 40 988 bom main 0 0 ______O__P__P_ SH041977 -1 -19.8000 140.800 30 40 988 -19.8605 140.805 TC 50 987 6 -19.7605 141.005 TC 40 987 55 55 2 192
1976351S13141 1977 144 SP EA TED 1976-12-20 06:00:00 TS -19.8500 140.867 main 0 0 ______P__O__O_ -1 -19.8500 140.800 30 39 988 -19.9000 140.800 TC 50 988 6 -19.8000 141.000 TC 40 988 3 185
1976351S13141 1977 144 SP EA TED 1976-12-20 09:00:00 TS -20.0000 140.867 main 0 0 ______P__P__P_ -1 -20.0000 140.800 30 36 990 -20.0500 140.800 TC 47 990 6 -19.9500 141.000 TC 37 990 3 178
1976351S13141 1977 144 SP EA TED 1976-12-20 11:00:00 TS -20.1000 140.867 35 992 bom main 0 0 ______O__P__P_ -1 -20.1000 140.800 30 35 992 -20.1500 140.800 TC 45 991 6 -20.0500 141.000 TC 35 991 49 49 3 0
1976351S13141 1977 144 SP EA TED 1976-12-20 12:00:00 TS -20.1500 140.867 main 0 0 ______P__O__O_ -1 -20.1500 140.800 30 33 992 -20.2000 140.800 TC 45 992 -20.1000 141.000 TC 35 992 3 0
1976351S13141 1977 144 SP EA TED 1976-12-20 15:00:00 TS -20.2955 140.873 main 0 0 ______P__P__P_ -1 -20.3000 140.800 30 28 994 -20.3500 140.800 TC 40 994 -20.2500 141.000 TC 32 994 3 176
1976351S13141 1977 144 SP EA TED 1976-12-20 17:00:00 TS -20.3900 140.880 25 996 bom main 0 0 ______O__P__P_ -1 -20.4000 140.800 20 25 996 -20.4500 140.800 TC 36 995 -20.3500 141.000 TC 30 995 45 45 3 172
1976351S13141 1977 144 SP EA TED 1976-12-20 18:00:00 TS -20.4312 140.900 main 0 0 ______P__O__O_ -1 -20.4500 140.800 20 24 996 -20.5000 140.800 TC 35 996 -20.4000 141.000 TC 30 996 3 166
1976351S13141 1977 144 SP EA TED 1976-12-20 21:00:00 TS -20.5700 140.920 main 0 0 ______P_____P_ -1 -20.6000 140.800 20 21 998 TC -20.5500 141.000 TC 30 998 3 173
1976351S13141 1977 144 SP EA TED 1976-12-20 23:00:00 TS -20.6667 140.933 20 1000 bom main 0 0 ______O_____P_ -1 -20.7000 140.800 20 20 1000 TC -20.6500 141.000 TC 30 999 45 45 3 148
1976351S13141 1977 144 SP EA TED 1976-12-21 00:00:00 TS -20.7000 141.000 main 0 ____________O_ -1 20 -20.7000 141.000 TC 30 1000 4 119

Digital Typhoon Data and Search

About IBTrACS Database

This database is a web-friendly format of International Best Track Archive for Climate Stewardship (IBTrACS), a global best track data archive curated by NOAA dating back to 1842.

Updated: 2021-11-26